sensor_id;sensor_type;location;lat;lon;timestamp;P1;durP1;ratioP1;P2;durP2;ratioP2
44750;SDS011;30477;48.224;11.470;2022-07-19T00:01:05;7.10;;;3.13;;
44750;SDS011;30477;48.224;11.470;2022-07-19T00:03:30;6.37;;;3.67;;
44750;SDS011;30477;48.224;11.470;2022-07-19T00:05:55;6.40;;;3.87;;
44750;SDS011;30477;48.224;11.470;2022-07-19T00:08:21;5.60;;;3.60;;
44750;SDS011;30477;48.224;11.470;2022-07-19T00:10:46;5.87;;;3.47;;
44750;SDS011;30477;48.224;11.470;2022-07-19T00:13:11;4.13;;;3.33;;
44750;SDS011;30477;48.224;11.470;2022-07-19T00:15:37;10.20;;;3.70;;
44750;SDS011;30477;48.224;11.470;2022-07-19T00:18:02;6.27;;;3.27;;
44750;SDS011;30477;48.224;11.470;2022-07-19T00:20:27;5.90;;;3.53;;
44750;SDS011;30477;48.224;11.470;2022-07-19T00:22:53;6.20;;;3.47;;
44750;SDS011;30477;48.224;11.470;2022-07-19T00:25:19;4.30;;;3.60;;
44750;SDS011;30477;48.224;11.470;2022-07-19T00:27:44;7.23;;;3.40;;
44750;SDS011;30477;48.224;11.470;2022-07-19T00:30:10;5.50;;;3.77;;
44750;SDS011;30477;48.224;11.470;2022-07-19T00:32:36;5.63;;;3.60;;
44750;SDS011;30477;48.224;11.470;2022-07-19T00:35:02;4.37;;;3.43;;
44750;SDS011;30477;48.224;11.470;2022-07-19T00:37:28;6.18;;;3.50;;
44750;SDS011;30477;48.224;11.470;2022-07-19T00:39:53;4.07;;;3.20;;
44750;SDS011;30477;48.224;11.470;2022-07-19T00:42:18;6.10;;;3.53;;
44750;SDS011;30477;48.224;11.470;2022-07-19T00:44:44;4.85;;;3.70;;
44750;SDS011;30477;48.224;11.470;2022-07-19T00:47:09;5.37;;;3.80;;
44750;SDS011;30477;48.224;11.470;2022-07-19T00:49:35;5.83;;;3.83;;
44750;SDS011;30477;48.224;11.470;2022-07-19T00:52:01;4.47;;;3.43;;
44750;SDS011;30477;48.224;11.470;2022-07-19T00:54:28;6.47;;;3.63;;
44750;SDS011;30477;48.224;11.470;2022-07-19T00:56:55;4.63;;;3.40;;
44750;SDS011;30477;48.224;11.470;2022-07-19T00:59:23;6.88;;;3.40;;
44750;SDS011;30477;48.224;11.470;2022-07-19T01:01:51;3.80;;;3.40;;
44750;SDS011;30477;48.224;11.470;2022-07-19T01:04:17;4.00;;;3.40;;
44750;SDS011;30477;48.224;11.470;2022-07-19T01:06:43;7.50;;;4.07;;
44750;SDS011;30477;48.224;11.470;2022-07-19T01:09:09;9.73;;;4.10;;
44750;SDS011;30477;48.224;11.470;2022-07-19T01:11:34;4.97;;;3.70;;
44750;SDS011;30477;48.224;11.470;2022-07-19T01:14:00;5.40;;;3.58;;
44750;SDS011;30477;48.224;11.470;2022-07-19T01:16:25;8.27;;;3.90;;
44750;SDS011;30477;48.224;11.470;2022-07-19T01:18:50;3.73;;;3.27;;
44750;SDS011;30477;48.224;11.470;2022-07-19T01:21:22;3.90;;;3.30;;
44750;SDS011;30477;48.224;11.470;2022-07-19T01:23:51;6.35;;;3.55;;
44750;SDS011;30477;48.224;11.470;2022-07-19T01:26:17;4.90;;;3.78;;
44750;SDS011;30477;48.224;11.470;2022-07-19T01:28:43;7.40;;;3.83;;
44750;SDS011;30477;48.224;11.470;2022-07-19T01:33:52;4.53;;;3.47;;
44750;SDS011;30477;48.224;11.470;2022-07-19T01:36:18;5.43;;;3.88;;
44750;SDS011;30477;48.224;11.470;2022-07-19T01:38:43;6.33;;;4.03;;
44750;SDS011;30477;48.224;11.470;2022-07-19T01:41:08;10.37;;;4.17;;
44750;SDS011;30477;48.224;11.470;2022-07-19T01:43:34;3.83;;;3.43;;
44750;SDS011;30477;48.224;11.470;2022-07-19T01:46:00;9.07;;;3.88;;
44750;SDS011;30477;48.224;11.470;2022-07-19T01:50:51;5.50;;;3.50;;
44750;SDS011;30477;48.224;11.470;2022-07-19T01:53:17;8.47;;;3.60;;
44750;SDS011;30477;48.224;11.470;2022-07-19T01:55:42;7.03;;;3.60;;
44750;SDS011;30477;48.224;11.470;2022-07-19T01:58:07;4.93;;;3.73;;
44750;SDS011;30477;48.224;11.470;2022-07-19T02:00:33;7.47;;;3.50;;
44750;SDS011;30477;48.224;11.470;2022-07-19T02:02:58;5.97;;;3.50;;
44750;SDS011;30477;48.224;11.470;2022-07-19T02:05:23;5.53;;;3.73;;
44750;SDS011;30477;48.224;11.470;2022-07-19T02:07:49;4.93;;;4.20;;
44750;SDS011;30477;48.224;11.470;2022-07-19T02:10:15;6.73;;;4.10;;
44750;SDS011;30477;48.224;11.470;2022-07-19T02:12:41;8.45;;;4.28;;
44750;SDS011;30477;48.224;11.470;2022-07-19T02:15:06;7.27;;;4.10;;
44750;SDS011;30477;48.224;11.470;2022-07-19T02:17:32;7.35;;;3.63;;
44750;SDS011;30477;48.224;11.470;2022-07-19T02:19:58;9.30;;;3.90;;
44750;SDS011;30477;48.224;11.470;2022-07-19T02:22:23;7.37;;;3.77;;
44750;SDS011;30477;48.224;11.470;2022-07-19T02:24:48;5.33;;;3.80;;
44750;SDS011;30477;48.224;11.470;2022-07-19T02:27:14;6.73;;;3.60;;
44750;SDS011;30477;48.224;11.470;2022-07-19T02:29:39;4.83;;;3.80;;
44750;SDS011;30477;48.224;11.470;2022-07-19T02:32:05;4.17;;;3.77;;
44750;SDS011;30477;48.224;11.470;2022-07-19T02:34:31;5.10;;;3.90;;
44750;SDS011;30477;48.224;11.470;2022-07-19T02:36:57;5.32;;;3.88;;
44750;SDS011;30477;48.224;11.470;2022-07-19T02:39:22;6.47;;;4.20;;
44750;SDS011;30477;48.224;11.470;2022-07-19T02:41:48;6.17;;;3.97;;
44750;SDS011;30477;48.224;11.470;2022-07-19T02:44:13;8.23;;;4.10;;
44750;SDS011;30477;48.224;11.470;2022-07-19T02:46:38;7.03;;;3.73;;
44750;SDS011;30477;48.224;11.470;2022-07-19T02:49:03;7.47;;;4.47;;
44750;SDS011;30477;48.224;11.470;2022-07-19T02:51:29;6.80;;;4.40;;
44750;SDS011;30477;48.224;11.470;2022-07-19T02:53:54;6.80;;;4.77;;
44750;SDS011;30477;48.224;11.470;2022-07-19T02:56:20;8.20;;;4.30;;
44750;SDS011;30477;48.224;11.470;2022-07-19T02:58:45;8.47;;;4.53;;
44750;SDS011;30477;48.224;11.470;2022-07-19T03:01:10;12.70;;;4.60;;
44750;SDS011;30477;48.224;11.470;2022-07-19T03:03:36;8.00;;;4.60;;
44750;SDS011;30477;48.224;11.470;2022-07-19T03:06:12;5.53;;;4.50;;
44750;SDS011;30477;48.224;11.470;2022-07-19T03:08:39;7.13;;;4.63;;
44750;SDS011;30477;48.224;11.470;2022-07-19T03:11:04;5.43;;;4.87;;
44750;SDS011;30477;48.224;11.470;2022-07-19T03:13:30;5.10;;;4.60;;
44750;SDS011;30477;48.224;11.470;2022-07-19T03:15:55;6.22;;;4.75;;
44750;SDS011;30477;48.224;11.470;2022-07-19T03:18:20;5.00;;;4.50;;
44750;SDS011;30477;48.224;11.470;2022-07-19T03:20:46;6.77;;;4.40;;
44750;SDS011;30477;48.224;11.470;2022-07-19T03:23:11;7.30;;;4.93;;
44750;SDS011;30477;48.224;11.470;2022-07-19T03:25:37;5.30;;;4.80;;
44750;SDS011;30477;48.224;11.470;2022-07-19T03:28:02;5.57;;;4.45;;
44750;SDS011;30477;48.224;11.470;2022-07-19T03:30:28;5.30;;;4.23;;
44750;SDS011;30477;48.224;11.470;2022-07-19T03:32:53;7.93;;;4.57;;
44750;SDS011;30477;48.224;11.470;2022-07-19T03:35:19;8.00;;;5.33;;
44750;SDS011;30477;48.224;11.470;2022-07-19T03:37:45;6.30;;;5.30;;
44750;SDS011;30477;48.224;11.470;2022-07-19T03:40:11;5.38;;;4.70;;
44750;SDS011;30477;48.224;11.470;2022-07-19T03:42:36;6.43;;;4.70;;
44750;SDS011;30477;48.224;11.470;2022-07-19T03:45:02;10.33;;;4.93;;
44750;SDS011;30477;48.224;11.470;2022-07-19T03:47:27;8.80;;;5.07;;
44750;SDS011;30477;48.224;11.470;2022-07-19T03:49:53;10.03;;;5.20;;
44750;SDS011;30477;48.224;11.470;2022-07-19T03:52:18;6.40;;;5.00;;
44750;SDS011;30477;48.224;11.470;2022-07-19T03:54:44;8.40;;;5.47;;
44750;SDS011;30477;48.224;11.470;2022-07-19T03:57:09;6.27;;;4.83;;
44750;SDS011;30477;48.224;11.470;2022-07-19T03:59:34;7.23;;;4.80;;
44750;SDS011;30477;48.224;11.470;2022-07-19T04:02:00;6.63;;;4.50;;
44750;SDS011;30477;48.224;11.470;2022-07-19T04:04:25;6.33;;;5.13;;
44750;SDS011;30477;48.224;11.470;2022-07-19T04:06:51;5.63;;;4.70;;
44750;SDS011;30477;48.224;11.470;2022-07-19T04:09:16;7.07;;;4.70;;
44750;SDS011;30477;48.224;11.470;2022-07-19T04:11:42;5.27;;;4.77;;
44750;SDS011;30477;48.224;11.470;2022-07-19T04:14:07;5.97;;;5.10;;
44750;SDS011;30477;48.224;11.470;2022-07-19T04:16:32;6.90;;;4.73;;
44750;SDS011;30477;48.224;11.470;2022-07-19T04:18:58;5.70;;;5.13;;
44750;SDS011;30477;48.224;11.470;2022-07-19T04:21:23;10.17;;;5.13;;
44750;SDS011;30477;48.224;11.470;2022-07-19T04:23:49;8.57;;;4.97;;
44750;SDS011;30477;48.224;11.470;2022-07-19T04:26:14;6.33;;;4.80;;
44750;SDS011;30477;48.224;11.470;2022-07-19T04:28:39;6.33;;;5.30;;
44750;SDS011;30477;48.224;11.470;2022-07-19T04:31:05;8.93;;;5.40;;
44750;SDS011;30477;48.224;11.470;2022-07-19T04:33:30;8.25;;;5.25;;
44750;SDS011;30477;48.224;11.470;2022-07-19T04:35:56;8.63;;;5.30;;
44750;SDS011;30477;48.224;11.470;2022-07-19T04:38:21;7.53;;;5.03;;
44750;SDS011;30477;48.224;11.470;2022-07-19T04:40:47;8.88;;;5.43;;
44750;SDS011;30477;48.224;11.470;2022-07-19T04:43:12;8.13;;;4.80;;
44750;SDS011;30477;48.224;11.470;2022-07-19T04:45:38;6.57;;;4.83;;
44750;SDS011;30477;48.224;11.470;2022-07-19T04:48:07;7.32;;;5.10;;
44750;SDS011;30477;48.224;11.470;2022-07-19T04:50:32;8.20;;;5.10;;
44750;SDS011;30477;48.224;11.470;2022-07-19T04:52:57;6.23;;;4.97;;
44750;SDS011;30477;48.224;11.470;2022-07-19T04:55:23;6.63;;;4.70;;
44750;SDS011;30477;48.224;11.470;2022-07-19T04:57:48;5.63;;;4.70;;
44750;SDS011;30477;48.224;11.470;2022-07-19T05:00:14;5.80;;;4.73;;
44750;SDS011;30477;48.224;11.470;2022-07-19T05:02:39;7.17;;;5.00;;
44750;SDS011;30477;48.224;11.470;2022-07-19T05:05:05;7.33;;;5.03;;
44750;SDS011;30477;48.224;11.470;2022-07-19T05:07:31;5.65;;;4.43;;
44750;SDS011;30477;48.224;11.470;2022-07-19T05:09:56;5.03;;;4.50;;
44750;SDS011;30477;48.224;11.470;2022-07-19T05:12:22;4.95;;;4.45;;
44750;SDS011;30477;48.224;11.470;2022-07-19T05:14:48;5.80;;;4.40;;
44750;SDS011;30477;48.224;11.470;2022-07-19T05:17:13;7.83;;;4.33;;
44750;SDS011;30477;48.224;11.470;2022-07-19T05:19:39;6.55;;;4.30;;
44750;SDS011;30477;48.224;11.470;2022-07-19T05:22:05;5.70;;;4.20;;
44750;SDS011;30477;48.224;11.470;2022-07-19T05:24:30;11.57;;;4.30;;
44750;SDS011;30477;48.224;11.470;2022-07-19T05:26:56;6.77;;;4.20;;
44750;SDS011;30477;48.224;11.470;2022-07-19T05:29:21;9.87;;;4.53;;
44750;SDS011;30477;48.224;11.470;2022-07-19T05:31:46;6.73;;;4.00;;
44750;SDS011;30477;48.224;11.470;2022-07-19T05:34:12;7.33;;;3.70;;
44750;SDS011;30477;48.224;11.470;2022-07-19T05:36:37;6.93;;;4.07;;
44750;SDS011;30477;48.224;11.470;2022-07-19T05:39:03;4.27;;;3.87;;
44750;SDS011;30477;48.224;11.470;2022-07-19T05:41:28;7.45;;;3.95;;
44750;SDS011;30477;48.224;11.470;2022-07-19T05:43:54;22.63;;;4.37;;
44750;SDS011;30477;48.224;11.470;2022-07-19T05:46:19;15.27;;;4.60;;
44750;SDS011;30477;48.224;11.470;2022-07-19T05:48:45;9.23;;;4.00;;
44750;SDS011;30477;48.224;11.470;2022-07-19T05:51:10;7.72;;;3.80;;
44750;SDS011;30477;48.224;11.470;2022-07-19T05:53:36;5.82;;;4.00;;
44750;SDS011;30477;48.224;11.470;2022-07-19T05:56:02;4.50;;;3.92;;
44750;SDS011;30477;48.224;11.470;2022-07-19T05:58:29;4.63;;;3.67;;
44750;SDS011;30477;48.224;11.470;2022-07-19T06:00:54;5.30;;;3.67;;
44750;SDS011;30477;48.224;11.470;2022-07-19T06:03:38;8.60;;;4.13;;
44750;SDS011;30477;48.224;11.470;2022-07-19T06:06:04;11.53;;;3.90;;
44750;SDS011;30477;48.224;11.470;2022-07-19T06:08:29;8.80;;;4.00;;
44750;SDS011;30477;48.224;11.470;2022-07-19T06:10:54;11.60;;;3.67;;
44750;SDS011;30477;48.224;11.470;2022-07-19T06:13:20;10.80;;;4.10;;
44750;SDS011;30477;48.224;11.470;2022-07-19T06:15:46;6.28;;;3.40;;
44750;SDS011;30477;48.224;11.470;2022-07-19T06:18:11;4.17;;;3.37;;
44750;SDS011;30477;48.224;11.470;2022-07-19T06:23:01;6.10;;;3.43;;
44750;SDS011;30477;48.224;11.470;2022-07-19T06:25:27;5.78;;;3.30;;
44750;SDS011;30477;48.224;11.470;2022-07-19T06:30:18;7.17;;;3.23;;
44750;SDS011;30477;48.224;11.470;2022-07-19T06:35:08;10.23;;;3.47;;
44750;SDS011;30477;48.224;11.470;2022-07-19T06:39:59;6.03;;;2.97;;
44750;SDS011;30477;48.224;11.470;2022-07-19T06:44:50;4.33;;;2.70;;
44750;SDS011;30477;48.224;11.470;2022-07-19T06:49:41;7.47;;;2.90;;
44750;SDS011;30477;48.224;11.470;2022-07-19T06:54:32;6.97;;;3.13;;
44750;SDS011;30477;48.224;11.470;2022-07-19T06:59:22;6.30;;;3.03;;
44750;SDS011;30477;48.224;11.470;2022-07-19T07:04:13;4.57;;;2.90;;
44750;SDS011;30477;48.224;11.470;2022-07-19T07:09:04;6.93;;;2.77;;
44750;SDS011;30477;48.224;11.470;2022-07-19T07:11:29;6.95;;;2.90;;
44750;SDS011;30477;48.224;11.470;2022-07-19T07:16:20;3.20;;;2.70;;
44750;SDS011;30477;48.224;11.470;2022-07-19T07:18:46;5.93;;;2.65;;
44750;SDS011;30477;48.224;11.470;2022-07-19T07:23:37;5.85;;;2.95;;
44750;SDS011;30477;48.224;11.470;2022-07-19T07:26:02;3.00;;;2.60;;
44750;SDS011;30477;48.224;11.470;2022-07-19T07:30:53;5.17;;;2.50;;
44750;SDS011;30477;48.224;11.470;2022-07-19T07:33:19;6.60;;;2.70;;
44750;SDS011;30477;48.224;11.470;2022-07-19T07:35:45;4.93;;;2.70;;
44750;SDS011;30477;48.224;11.470;2022-07-19T07:38:10;3.78;;;2.50;;
44750;SDS011;30477;48.224;11.470;2022-07-19T07:40:35;5.28;;;2.70;;
44750;SDS011;30477;48.224;11.470;2022-07-19T07:43:01;6.65;;;2.78;;
44750;SDS011;30477;48.224;11.470;2022-07-19T07:45:27;4.00;;;2.20;;
44750;SDS011;30477;48.224;11.470;2022-07-19T07:47:54;6.65;;;3.00;;
44750;SDS011;30477;48.224;11.470;2022-07-19T07:50:19;5.75;;;2.60;;
44750;SDS011;30477;48.224;11.470;2022-07-19T07:52:44;4.57;;;2.50;;
44750;SDS011;30477;48.224;11.470;2022-07-19T07:55:10;5.47;;;2.78;;
44750;SDS011;30477;48.224;11.470;2022-07-19T07:57:35;3.78;;;2.85;;
44750;SDS011;30477;48.224;11.470;2022-07-19T08:00:01;5.50;;;2.40;;
44750;SDS011;30477;48.224;11.470;2022-07-19T08:02:26;5.55;;;2.70;;
44750;SDS011;30477;48.224;11.470;2022-07-19T08:04:52;5.30;;;2.20;;
44750;SDS011;30477;48.224;11.470;2022-07-19T08:07:17;4.80;;;2.33;;
44750;SDS011;30477;48.224;11.470;2022-07-19T08:09:42;6.68;;;2.65;;
44750;SDS011;30477;48.224;11.470;2022-07-19T08:12:08;5.10;;;2.78;;
44750;SDS011;30477;48.224;11.470;2022-07-19T08:14:33;5.72;;;2.45;;
44750;SDS011;30477;48.224;11.470;2022-07-19T08:16:58;4.50;;;2.22;;
44750;SDS011;30477;48.224;11.470;2022-07-19T08:19:24;6.13;;;2.45;;
44750;SDS011;30477;48.224;11.470;2022-07-19T08:21:50;4.78;;;2.63;;
44750;SDS011;30477;48.224;11.470;2022-07-19T08:24:15;5.50;;;2.28;;
44750;SDS011;30477;48.224;11.470;2022-07-19T08:26:41;4.28;;;2.65;;
44750;SDS011;30477;48.224;11.470;2022-07-19T08:29:06;4.05;;;2.40;;
44750;SDS011;30477;48.224;11.470;2022-07-19T08:31:32;3.28;;;2.58;;
44750;SDS011;30477;48.224;11.470;2022-07-19T08:33:58;4.40;;;2.47;;
44750;SDS011;30477;48.224;11.470;2022-07-19T08:36:23;4.63;;;2.40;;
44750;SDS011;30477;48.224;11.470;2022-07-19T08:38:49;3.45;;;2.17;;
44750;SDS011;30477;48.224;11.470;2022-07-19T08:41:14;3.63;;;2.30;;
44750;SDS011;30477;48.224;11.470;2022-07-19T08:43:41;5.82;;;2.10;;
44750;SDS011;30477;48.224;11.470;2022-07-19T08:46:06;5.35;;;2.38;;
44750;SDS011;30477;48.224;11.470;2022-07-19T08:48:32;6.07;;;2.50;;
44750;SDS011;30477;48.224;11.470;2022-07-19T08:50:59;4.47;;;2.30;;
44750;SDS011;30477;48.224;11.470;2022-07-19T08:53:28;3.95;;;2.13;;
44750;SDS011;30477;48.224;11.470;2022-07-19T08:55:54;4.57;;;2.10;;
44750;SDS011;30477;48.224;11.470;2022-07-19T08:58:20;2.45;;;2.00;;
44750;SDS011;30477;48.224;11.470;2022-07-19T09:00:45;2.45;;;2.15;;
44750;SDS011;30477;48.224;11.470;2022-07-19T09:03:11;4.57;;;2.50;;
44750;SDS011;30477;48.224;11.470;2022-07-19T09:05:37;7.32;;;2.38;;
44750;SDS011;30477;48.224;11.470;2022-07-19T09:08:07;4.28;;;2.30;;
44750;SDS011;30477;48.224;11.470;2022-07-19T09:10:35;3.63;;;2.33;;
44750;SDS011;30477;48.224;11.470;2022-07-19T09:13:13;4.30;;;2.17;;
44750;SDS011;30477;48.224;11.470;2022-07-19T09:15:41;3.53;;;2.20;;
44750;SDS011;30477;48.224;11.470;2022-07-19T09:18:23;4.32;;;2.30;;
44750;SDS011;30477;48.224;11.470;2022-07-19T09:20:55;8.02;;;2.50;;
44750;SDS011;30477;48.224;11.470;2022-07-19T09:23:28;4.88;;;2.42;;
44750;SDS011;30477;48.224;11.470;2022-07-19T09:25:55;3.00;;;2.20;;
44750;SDS011;30477;48.224;11.470;2022-07-19T09:28:23;4.55;;;2.00;;
44750;SDS011;30477;48.224;11.470;2022-07-19T09:30:51;5.38;;;2.25;;
44750;SDS011;30477;48.224;11.470;2022-07-19T09:33:21;4.38;;;1.80;;
44750;SDS011;30477;48.224;11.470;2022-07-19T09:40:48;3.42;;;2.00;;
44750;SDS011;30477;48.224;11.470;2022-07-19T09:43:15;4.03;;;1.92;;
44750;SDS011;30477;48.224;11.470;2022-07-19T09:45:42;2.35;;;1.65;;
44750;SDS011;30477;48.224;11.470;2022-07-19T09:48:07;5.07;;;1.75;;
44750;SDS011;30477;48.224;11.470;2022-07-19T09:50:33;5.55;;;1.85;;
44750;SDS011;30477;48.224;11.470;2022-07-19T09:52:58;5.15;;;2.08;;
44750;SDS011;30477;48.224;11.470;2022-07-19T09:55:27;2.97;;;1.70;;
44750;SDS011;30477;48.224;11.470;2022-07-19T09:57:52;3.08;;;1.80;;
44750;SDS011;30477;48.224;11.470;2022-07-19T10:00:21;12.88;;;2.30;;
44750;SDS011;30477;48.224;11.470;2022-07-19T10:02:53;4.32;;;1.80;;
44750;SDS011;30477;48.224;11.470;2022-07-19T10:05:22;3.63;;;1.80;;
44750;SDS011;30477;48.224;11.470;2022-07-19T10:07:49;4.22;;;1.60;;
44750;SDS011;30477;48.224;11.470;2022-07-19T10:10:16;6.13;;;2.00;;
44750;SDS011;30477;48.224;11.470;2022-07-19T10:12:43;2.88;;;1.90;;
44750;SDS011;30477;48.224;11.470;2022-07-19T10:15:11;5.78;;;1.95;;
44750;SDS011;30477;48.224;11.470;2022-07-19T10:20:38;4.75;;;1.65;;
44750;SDS011;30477;48.224;11.470;2022-07-19T10:23:07;3.38;;;1.75;;
44750;SDS011;30477;48.224;11.470;2022-07-19T10:25:39;3.25;;;1.90;;
44750;SDS011;30477;48.224;11.470;2022-07-19T10:28:15;6.28;;;1.98;;
44750;SDS011;30477;48.224;11.470;2022-07-19T10:30:53;3.35;;;1.80;;
44750;SDS011;30477;48.224;11.470;2022-07-19T10:33:26;4.82;;;2.10;;
44750;SDS011;30477;48.224;11.470;2022-07-19T10:35:54;3.10;;;1.90;;
44750;SDS011;30477;48.224;11.470;2022-07-19T10:38:20;3.17;;;1.90;;
44750;SDS011;30477;48.224;11.470;2022-07-19T10:40:46;2.97;;;2.13;;
44750;SDS011;30477;48.224;11.470;2022-07-19T10:43:14;5.28;;;2.00;;
44750;SDS011;30477;48.224;11.470;2022-07-19T10:45:41;2.03;;;1.77;;
44750;SDS011;30477;48.224;11.470;2022-07-19T10:48:12;3.17;;;2.00;;
44750;SDS011;30477;48.224;11.470;2022-07-19T10:58:57;2.40;;;2.20;;
44750;SDS011;30477;48.224;11.470;2022-07-19T11:01:26;3.67;;;1.98;;
44750;SDS011;30477;48.224;11.470;2022-07-19T11:03:53;2.90;;;1.80;;
44750;SDS011;30477;48.224;11.470;2022-07-19T11:06:21;6.00;;;2.17;;
44750;SDS011;30477;48.224;11.470;2022-07-19T11:08:55;5.43;;;2.20;;
44750;SDS011;30477;48.224;11.470;2022-07-19T11:11:21;4.13;;;2.38;;
44750;SDS011;30477;48.224;11.470;2022-07-19T11:13:49;5.28;;;2.28;;
44750;SDS011;30477;48.224;11.470;2022-07-19T11:16:19;2.75;;;2.20;;
44750;SDS011;30477;48.224;11.470;2022-07-19T11:18:46;5.65;;;2.60;;
44750;SDS011;30477;48.224;11.470;2022-07-19T11:21:14;4.53;;;2.20;;
44750;SDS011;30477;48.224;11.470;2022-07-19T11:23:41;4.47;;;2.13;;
44750;SDS011;30477;48.224;11.470;2022-07-19T11:26:17;2.53;;;2.28;;
44750;SDS011;30477;48.224;11.470;2022-07-19T11:28:46;4.75;;;2.30;;
44750;SDS011;30477;48.224;11.470;2022-07-19T11:31:18;3.95;;;2.50;;
44750;SDS011;30477;48.224;11.470;2022-07-19T11:33:49;6.22;;;2.53;;
44750;SDS011;30477;48.224;11.470;2022-07-19T11:36:18;7.85;;;2.35;;
44750;SDS011;30477;48.224;11.470;2022-07-19T11:38:45;7.57;;;2.28;;
44750;SDS011;30477;48.224;11.470;2022-07-19T11:43:55;4.78;;;2.58;;
44750;SDS011;30477;48.224;11.470;2022-07-19T11:46:32;5.78;;;2.65;;
44750;SDS011;30477;48.224;11.470;2022-07-19T11:49:02;5.25;;;2.60;;
44750;SDS011;30477;48.224;11.470;2022-07-19T11:51:29;6.90;;;2.70;;
44750;SDS011;30477;48.224;11.470;2022-07-19T11:53:55;5.18;;;2.33;;
44750;SDS011;30477;48.224;11.470;2022-07-19T11:56:23;7.70;;;2.78;;
44750;SDS011;30477;48.224;11.470;2022-07-19T11:58:51;3.88;;;2.67;;
44750;SDS011;30477;48.224;11.470;2022-07-19T12:03:52;5.63;;;3.28;;
44750;SDS011;30477;48.224;11.470;2022-07-19T12:06:33;5.38;;;2.95;;
44750;SDS011;30477;48.224;11.470;2022-07-19T12:09:02;4.45;;;2.75;;
44750;SDS011;30477;48.224;11.470;2022-07-19T12:11:30;4.70;;;3.05;;
44750;SDS011;30477;48.224;11.470;2022-07-19T12:14:15;6.53;;;3.40;;
44750;SDS011;30477;48.224;11.470;2022-07-19T12:17:18;6.60;;;3.20;;
44750;SDS011;30477;48.224;11.470;2022-07-19T12:19:52;6.43;;;3.30;;
44750;SDS011;30477;48.224;11.470;2022-07-19T12:22:35;8.30;;;3.43;;
44750;SDS011;30477;48.224;11.470;2022-07-19T12:25:02;6.32;;;3.47;;
44750;SDS011;30477;48.224;11.470;2022-07-19T12:27:29;3.60;;;3.30;;
44750;SDS011;30477;48.224;11.470;2022-07-19T12:32:28;6.85;;;3.70;;
44750;SDS011;30477;48.224;11.470;2022-07-19T12:34:58;5.22;;;3.80;;
44750;SDS011;30477;48.224;11.470;2022-07-19T12:37:29;7.88;;;3.88;;
44750;SDS011;30477;48.224;11.470;2022-07-19T12:40:10;4.68;;;3.42;;
44750;SDS011;30477;48.224;11.470;2022-07-19T12:47:30;8.90;;;4.75;;
44750;SDS011;30477;48.224;11.470;2022-07-19T12:52:20;6.77;;;4.43;;
44750;SDS011;30477;48.224;11.470;2022-07-19T12:54:46;6.05;;;4.00;;
44750;SDS011;30477;48.224;11.470;2022-07-19T12:57:11;5.47;;;4.57;;
44750;SDS011;30477;48.224;11.470;2022-07-19T13:02:05;6.70;;;5.15;;
44750;SDS011;30477;48.224;11.470;2022-07-19T13:04:31;6.85;;;5.50;;
44750;SDS011;30477;48.224;11.470;2022-07-19T13:09:22;7.47;;;4.05;;
44750;SDS011;30477;48.224;11.470;2022-07-19T13:11:48;5.28;;;4.03;;
44750;SDS011;30477;48.224;11.470;2022-07-19T13:14:13;10.32;;;5.70;;
44750;SDS011;30477;48.224;11.470;2022-07-19T13:16:39;7.32;;;4.70;;
44750;SDS011;30477;48.224;11.470;2022-07-19T13:19:05;6.20;;;4.40;;
44750;SDS011;30477;48.224;11.470;2022-07-19T13:21:30;9.38;;;4.95;;
44750;SDS011;30477;48.224;11.470;2022-07-19T13:23:56;10.82;;;5.75;;
44750;SDS011;30477;48.224;11.470;2022-07-19T13:26:21;7.55;;;5.43;;
44750;SDS011;30477;48.224;11.470;2022-07-19T13:28:47;9.30;;;5.22;;
44750;SDS011;30477;48.224;11.470;2022-07-19T13:33:37;6.73;;;4.20;;
44750;SDS011;30477;48.224;11.470;2022-07-19T13:36:03;8.85;;;4.72;;
44750;SDS011;30477;48.224;11.470;2022-07-19T13:40:54;8.30;;;4.30;;
44750;SDS011;30477;48.224;11.470;2022-07-19T13:43:20;6.78;;;4.40;;
44750;SDS011;30477;48.224;11.470;2022-07-19T13:45:45;7.72;;;4.35;;
44750;SDS011;30477;48.224;11.470;2022-07-19T13:48:10;5.25;;;3.90;;
44750;SDS011;30477;48.224;11.470;2022-07-19T13:50:36;8.13;;;4.85;;
44750;SDS011;30477;48.224;11.470;2022-07-19T13:53:02;8.30;;;4.85;;
44750;SDS011;30477;48.224;11.470;2022-07-19T13:55:28;12.98;;;5.47;;
44750;SDS011;30477;48.224;11.470;2022-07-19T13:57:53;7.60;;;4.60;;
44750;SDS011;30477;48.224;11.470;2022-07-19T14:00:19;6.43;;;4.60;;
44750;SDS011;30477;48.224;11.470;2022-07-19T14:02:46;6.03;;;4.38;;
44750;SDS011;30477;48.224;11.470;2022-07-19T14:05:11;7.05;;;4.88;;
44750;SDS011;30477;48.224;11.470;2022-07-19T14:07:37;13.73;;;5.20;;
44750;SDS011;30477;48.224;11.470;2022-07-19T14:10:03;6.43;;;4.57;;
44750;SDS011;30477;48.224;11.470;2022-07-19T14:12:29;5.93;;;4.35;;
44750;SDS011;30477;48.224;11.470;2022-07-19T14:14:55;13.00;;;5.78;;
44750;SDS011;30477;48.224;11.470;2022-07-19T14:17:21;10.05;;;4.93;;
44750;SDS011;30477;48.224;11.470;2022-07-19T14:19:46;7.70;;;4.55;;
44750;SDS011;30477;48.224;11.470;2022-07-19T14:22:11;6.03;;;4.37;;
44750;SDS011;30477;48.224;11.470;2022-07-19T14:24:37;8.02;;;4.88;;
44750;SDS011;30477;48.224;11.470;2022-07-19T14:27:02;10.48;;;5.30;;
44750;SDS011;30477;48.224;11.470;2022-07-19T14:31:53;10.17;;;5.50;;
44750;SDS011;30477;48.224;11.470;2022-07-19T14:34:19;8.43;;;4.80;;
44750;SDS011;30477;48.224;11.470;2022-07-19T14:39:09;11.23;;;5.43;;
44750;SDS011;30477;48.224;11.470;2022-07-19T14:41:35;11.43;;;5.93;;
44750;SDS011;30477;48.224;11.470;2022-07-19T14:44:01;8.32;;;4.78;;
44750;SDS011;30477;48.224;11.470;2022-07-19T14:46:27;9.35;;;4.93;;
44750;SDS011;30477;48.224;11.470;2022-07-19T14:48:52;7.70;;;4.97;;
44750;SDS011;30477;48.224;11.470;2022-07-19T14:53:43;10.90;;;5.00;;
44750;SDS011;30477;48.224;11.470;2022-07-19T14:56:08;10.20;;;5.55;;
44750;SDS011;30477;48.224;11.470;2022-07-19T14:58:33;9.80;;;5.15;;
44750;SDS011;30477;48.224;11.470;2022-07-19T15:01:00;8.80;;;5.07;;
44750;SDS011;30477;48.224;11.470;2022-07-19T15:03:26;8.35;;;5.43;;
44750;SDS011;30477;48.224;11.470;2022-07-19T15:05:52;8.18;;;4.80;;
44750;SDS011;30477;48.224;11.470;2022-07-19T15:10:42;13.33;;;5.33;;
44750;SDS011;30477;48.224;11.470;2022-07-19T15:15:33;8.13;;;5.35;;
44750;SDS011;30477;48.224;11.470;2022-07-19T15:17:59;8.48;;;5.78;;
44750;SDS011;30477;48.224;11.470;2022-07-19T15:20:24;9.13;;;5.50;;
44750;SDS011;30477;48.224;11.470;2022-07-19T15:22:49;10.77;;;6.40;;
44750;SDS011;30477;48.224;11.470;2022-07-19T15:25:15;8.98;;;5.38;;
44750;SDS011;30477;48.224;11.470;2022-07-19T15:27:43;9.10;;;6.22;;
44750;SDS011;30477;48.224;11.470;2022-07-19T15:30:09;10.18;;;5.55;;
44750;SDS011;30477;48.224;11.470;2022-07-19T15:32:35;7.75;;;5.63;;
44750;SDS011;30477;48.224;11.470;2022-07-19T15:35:02;6.32;;;5.65;;
44750;SDS011;30477;48.224;11.470;2022-07-19T15:37:27;13.20;;;6.05;;
44750;SDS011;30477;48.224;11.470;2022-07-19T15:39:53;13.00;;;6.13;;
44750;SDS011;30477;48.224;11.470;2022-07-19T15:42:18;10.20;;;5.43;;
44750;SDS011;30477;48.224;11.470;2022-07-19T15:44:44;9.68;;;6.22;;
44750;SDS011;30477;48.224;11.470;2022-07-19T15:47:09;7.63;;;5.30;;
44750;SDS011;30477;48.224;11.470;2022-07-19T15:49:34;12.70;;;6.55;;
44750;SDS011;30477;48.224;11.470;2022-07-19T15:52:00;11.57;;;6.28;;
44750;SDS011;30477;48.224;11.470;2022-07-19T15:54:26;12.27;;;6.35;;
44750;SDS011;30477;48.224;11.470;2022-07-19T15:56:51;12.13;;;6.57;;
44750;SDS011;30477;48.224;11.470;2022-07-19T15:59:16;10.48;;;6.40;;